sensor_id;sensor_type;location;lat;lon;timestamp;P1;durP1;ratioP1;P2;durP2;ratioP2
57105;SDS011;62662;56.788;23.942;2022-08-05T00:02:20;6.43;;;2.88;;
57105;SDS011;62662;56.788;23.942;2022-08-05T00:04:47;9.43;;;2.50;;
57105;SDS011;62662;56.788;23.942;2022-08-05T00:07:21;15.38;;;3.38;;
57105;SDS011;62662;56.788;23.942;2022-08-05T00:10:09;10.80;;;2.83;;
57105;SDS011;62662;56.788;23.942;2022-08-05T00:12:36;10.65;;;2.63;;
57105;SDS011;62662;56.788;23.942;2022-08-05T00:15:21;4.97;;;2.88;;
57105;SDS011;62662;56.788;23.942;2022-08-05T00:18:08;8.25;;;3.10;;
57105;SDS011;62662;56.788;23.942;2022-08-05T00:20:47;12.68;;;3.10;;
57105;SDS011;62662;56.788;23.942;2022-08-05T00:23:14;7.22;;;2.83;;
57105;SDS011;62662;56.788;23.942;2022-08-05T00:25:41;8.45;;;2.72;;
57105;SDS011;62662;56.788;23.942;2022-08-05T00:28:11;5.45;;;2.95;;
57105;SDS011;62662;56.788;23.942;2022-08-05T00:30:39;6.40;;;2.67;;
57105;SDS011;62662;56.788;23.942;2022-08-05T00:33:09;10.43;;;2.25;;
57105;SDS011;62662;56.788;23.942;2022-08-05T00:35:57;9.35;;;2.33;;
57105;SDS011;62662;56.788;23.942;2022-08-05T00:38:44;5.72;;;3.05;;
57105;SDS011;62662;56.788;23.942;2022-08-05T00:41:11;11.68;;;2.88;;
57105;SDS011;62662;56.788;23.942;2022-08-05T00:43:39;12.95;;;2.53;;
57105;SDS011;62662;56.788;23.942;2022-08-05T00:46:12;10.82;;;2.85;;
57105;SDS011;62662;56.788;23.942;2022-08-05T00:48:41;4.72;;;2.95;;
57105;SDS011;62662;56.788;23.942;2022-08-05T00:51:18;15.73;;;3.15;;
57105;SDS011;62662;56.788;23.942;2022-08-05T00:54:06;12.95;;;2.97;;
57105;SDS011;62662;56.788;23.942;2022-08-05T00:56:36;9.05;;;2.75;;
57105;SDS011;62662;56.788;23.942;2022-08-05T00:59:16;9.40;;;2.55;;
57105;SDS011;62662;56.788;23.942;2022-08-05T01:01:43;8.60;;;2.92;;
57105;SDS011;62662;56.788;23.942;2022-08-05T01:04:14;12.73;;;2.78;;
57105;SDS011;62662;56.788;23.942;2022-08-05T01:06:52;7.30;;;2.83;;
57105;SDS011;62662;56.788;23.942;2022-08-05T01:09:20;9.82;;;2.60;;
57105;SDS011;62662;56.788;23.942;2022-08-05T01:11:48;6.65;;;2.50;;
57105;SDS011;62662;56.788;23.942;2022-08-05T01:14:37;9.95;;;2.97;;
57105;SDS011;62662;56.788;23.942;2022-08-05T01:17:42;10.38;;;3.05;;
57105;SDS011;62662;56.788;23.942;2022-08-05T01:20:24;8.80;;;2.67;;
57105;SDS011;62662;56.788;23.942;2022-08-05T01:28:30;7.97;;;3.38;;
57105;SDS011;62662;56.788;23.942;2022-08-05T01:37:07;7.68;;;2.80;;
57105;SDS011;62662;56.788;23.942;2022-08-05T01:39:50;7.82;;;2.80;;
57105;SDS011;62662;56.788;23.942;2022-08-05T01:42:24;7.43;;;2.70;;
57105;SDS011;62662;56.788;23.942;2022-08-05T01:44:56;5.43;;;2.20;;
57105;SDS011;62662;56.788;23.942;2022-08-05T01:47:29;6.78;;;2.63;;
57105;SDS011;62662;56.788;23.942;2022-08-05T01:50:05;6.35;;;2.20;;
57105;SDS011;62662;56.788;23.942;2022-08-05T01:55:09;11.45;;;2.78;;
57105;SDS011;62662;56.788;23.942;2022-08-05T01:57:40;7.47;;;2.65;;
57105;SDS011;62662;56.788;23.942;2022-08-05T02:00:31;4.35;;;2.30;;
57105;SDS011;62662;56.788;23.942;2022-08-05T02:03:03;9.85;;;2.65;;
57105;SDS011;62662;56.788;23.942;2022-08-05T02:05:50;7.60;;;2.33;;
57105;SDS011;62662;56.788;23.942;2022-08-05T02:10:58;3.95;;;2.85;;
57105;SDS011;62662;56.788;23.942;2022-08-05T02:13:37;4.28;;;2.33;;
57105;SDS011;62662;56.788;23.942;2022-08-05T02:19:02;6.13;;;2.63;;
57105;SDS011;62662;56.788;23.942;2022-08-05T02:21:38;3.85;;;2.28;;
57105;SDS011;62662;56.788;23.942;2022-08-05T02:24:16;9.80;;;2.50;;
57105;SDS011;62662;56.788;23.942;2022-08-05T02:26:50;8.02;;;2.67;;
57105;SDS011;62662;56.788;23.942;2022-08-05T02:29:22;6.53;;;2.20;;
57105;SDS011;62662;56.788;23.942;2022-08-05T02:32:11;5.75;;;2.30;;
57105;SDS011;62662;56.788;23.942;2022-08-05T02:34:49;6.20;;;2.40;;
57105;SDS011;62662;56.788;23.942;2022-08-05T02:37:20;9.45;;;2.50;;
57105;SDS011;62662;56.788;23.942;2022-08-05T02:39:50;5.22;;;2.33;;
57105;SDS011;62662;56.788;23.942;2022-08-05T02:42:18;4.28;;;2.50;;
57105;SDS011;62662;56.788;23.942;2022-08-05T02:44:53;10.02;;;2.50;;
57105;SDS011;62662;56.788;23.942;2022-08-05T02:47:22;5.65;;;2.30;;
57105;SDS011;62662;56.788;23.942;2022-08-05T02:50:13;6.63;;;2.67;;
57105;SDS011;62662;56.788;23.942;2022-08-05T02:52:43;7.28;;;3.00;;
57105;SDS011;62662;56.788;23.942;2022-08-05T02:55:11;7.15;;;2.67;;
57105;SDS011;62662;56.788;23.942;2022-08-05T02:57:42;5.53;;;2.63;;
57105;SDS011;62662;56.788;23.942;2022-08-05T03:00:30;5.97;;;2.38;;
57105;SDS011;62662;56.788;23.942;2022-08-05T03:03:00;6.60;;;2.88;;
57105;SDS011;62662;56.788;23.942;2022-08-05T03:05:36;5.95;;;2.65;;
57105;SDS011;62662;56.788;23.942;2022-08-05T03:08:24;5.82;;;2.92;;
57105;SDS011;62662;56.788;23.942;2022-08-05T03:10:55;8.32;;;2.65;;
57105;SDS011;62662;56.788;23.942;2022-08-05T03:13:42;7.35;;;3.22;;
57105;SDS011;62662;56.788;23.942;2022-08-05T03:16:28;9.95;;;2.83;;
57105;SDS011;62662;56.788;23.942;2022-08-05T03:18:56;9.40;;;2.78;;
57105;SDS011;62662;56.788;23.942;2022-08-05T03:21:24;7.57;;;2.70;;
57105;SDS011;62662;56.788;23.942;2022-08-05T03:23:58;9.23;;;3.08;;
57105;SDS011;62662;56.788;23.942;2022-08-05T03:26:27;10.82;;;3.20;;
57105;SDS011;62662;56.788;23.942;2022-08-05T03:28:57;5.70;;;2.40;;
57105;SDS011;62662;56.788;23.942;2022-08-05T03:31:25;7.88;;;2.55;;
57105;SDS011;62662;56.788;23.942;2022-08-05T03:34:12;6.22;;;2.70;;
57105;SDS011;62662;56.788;23.942;2022-08-05T03:36:39;4.78;;;2.63;;
57105;SDS011;62662;56.788;23.942;2022-08-05T03:39:07;18.85;;;2.65;;
57105;SDS011;62662;56.788;23.942;2022-08-05T03:41:52;8.15;;;2.30;;
57105;SDS011;62662;56.788;23.942;2022-08-05T03:44:21;4.55;;;2.17;;
57105;SDS011;62662;56.788;23.942;2022-08-05T03:46:49;4.95;;;2.70;;
57105;SDS011;62662;56.788;23.942;2022-08-05T03:49:16;7.10;;;2.33;;
57105;SDS011;62662;56.788;23.942;2022-08-05T03:51:52;5.30;;;2.40;;
57105;SDS011;62662;56.788;23.942;2022-08-05T03:54:55;5.38;;;2.70;;
57105;SDS011;62662;56.788;23.942;2022-08-05T03:57:46;5.97;;;2.30;;
57105;SDS011;62662;56.788;23.942;2022-08-05T04:00:18;8.45;;;2.53;;
57105;SDS011;62662;56.788;23.942;2022-08-05T04:02:51;6.18;;;2.10;;
57105;SDS011;62662;56.788;23.942;2022-08-05T04:05:28;6.72;;;2.67;;
57105;SDS011;62662;56.788;23.942;2022-08-05T04:08:03;5.03;;;2.40;;
57105;SDS011;62662;56.788;23.942;2022-08-05T04:10:40;5.57;;;2.72;;
57105;SDS011;62662;56.788;23.942;2022-08-05T04:13:09;5.80;;;2.72;;
57105;SDS011;62662;56.788;23.942;2022-08-05T04:15:37;9.63;;;2.40;;
57105;SDS011;62662;56.788;23.942;2022-08-05T04:18:24;7.68;;;2.42;;
57105;SDS011;62662;56.788;23.942;2022-08-05T04:20:56;8.77;;;2.72;;
57105;SDS011;62662;56.788;23.942;2022-08-05T04:23:24;8.88;;;2.20;;
57105;SDS011;62662;56.788;23.942;2022-08-05T04:26:13;6.03;;;2.00;;
57105;SDS011;62662;56.788;23.942;2022-08-05T04:28:42;6.57;;;2.10;;
57105;SDS011;62662;56.788;23.942;2022-08-05T04:31:17;5.75;;;2.17;;
57105;SDS011;62662;56.788;23.942;2022-08-05T04:33:45;8.95;;;2.40;;
57105;SDS011;62662;56.788;23.942;2022-08-05T04:36:32;9.70;;;2.28;;
57105;SDS011;62662;56.788;23.942;2022-08-05T04:39:15;7.88;;;2.05;;
57105;SDS011;62662;56.788;23.942;2022-08-05T04:41:43;7.45;;;2.17;;
57105;SDS011;62662;56.788;23.942;2022-08-05T04:44:13;8.13;;;2.03;;
57105;SDS011;62662;56.788;23.942;2022-08-05T04:46:46;5.63;;;1.88;;
57105;SDS011;62662;56.788;23.942;2022-08-05T04:49:13;9.55;;;2.25;;
57105;SDS011;62662;56.788;23.942;2022-08-05T04:51:43;6.00;;;1.85;;
57105;SDS011;62662;56.788;23.942;2022-08-05T04:54:10;5.00;;;2.08;;
57105;SDS011;62662;56.788;23.942;2022-08-05T04:56:40;6.32;;;2.20;;
57105;SDS011;62662;56.788;23.942;2022-08-05T04:59:08;6.28;;;2.20;;
57105;SDS011;62662;56.788;23.942;2022-08-05T05:01:50;5.80;;;2.15;;
57105;SDS011;62662;56.788;23.942;2022-08-05T05:04:38;9.85;;;2.65;;
57105;SDS011;62662;56.788;23.942;2022-08-05T05:07:13;5.15;;;2.22;;
57105;SDS011;62662;56.788;23.942;2022-08-05T05:09:42;4.22;;;2.30;;
57105;SDS011;62662;56.788;23.942;2022-08-05T05:12:10;5.00;;;2.50;;
57105;SDS011;62662;56.788;23.942;2022-08-05T05:14:38;9.32;;;2.95;;
57105;SDS011;62662;56.788;23.942;2022-08-05T05:17:15;7.15;;;2.45;;
57105;SDS011;62662;56.788;23.942;2022-08-05T05:19:51;8.35;;;2.72;;
57105;SDS011;62662;56.788;23.942;2022-08-05T05:22:20;7.00;;;2.75;;
57105;SDS011;62662;56.788;23.942;2022-08-05T05:24:49;6.93;;;2.50;;
57105;SDS011;62662;56.788;23.942;2022-08-05T05:27:25;7.40;;;2.40;;
57105;SDS011;62662;56.788;23.942;2022-08-05T05:30:14;7.43;;;2.80;;
57105;SDS011;62662;56.788;23.942;2022-08-05T05:32:58;7.35;;;2.80;;
57105;SDS011;62662;56.788;23.942;2022-08-05T05:35:39;9.95;;;2.75;;
57105;SDS011;62662;56.788;23.942;2022-08-05T05:38:07;3.88;;;2.50;;
57105;SDS011;62662;56.788;23.942;2022-08-05T05:40:39;9.50;;;2.78;;
57105;SDS011;62662;56.788;23.942;2022-08-05T05:43:17;3.10;;;2.17;;
57105;SDS011;62662;56.788;23.942;2022-08-05T05:46:04;4.00;;;2.30;;
57105;SDS011;62662;56.788;23.942;2022-08-05T05:48:40;3.85;;;2.45;;
57105;SDS011;62662;56.788;23.942;2022-08-05T05:51:09;5.28;;;2.67;;
57105;SDS011;62662;56.788;23.942;2022-08-05T05:53:41;4.82;;;2.25;;
57105;SDS011;62662;56.788;23.942;2022-08-05T05:56:23;22.73;;;2.78;;
57105;SDS011;62662;56.788;23.942;2022-08-05T05:59:03;6.45;;;2.35;;
57105;SDS011;62662;56.788;23.942;2022-08-05T06:01:34;6.63;;;2.10;;
57105;SDS011;62662;56.788;23.942;2022-08-05T06:04:22;5.43;;;2.25;;
57105;SDS011;62662;56.788;23.942;2022-08-05T06:06:49;3.88;;;2.00;;
57105;SDS011;62662;56.788;23.942;2022-08-05T06:09:17;3.88;;;1.80;;
57105;SDS011;62662;56.788;23.942;2022-08-05T06:12:04;6.40;;;2.10;;
57105;SDS011;62662;56.788;23.942;2022-08-05T06:14:34;6.70;;;2.20;;
57105;SDS011;62662;56.788;23.942;2022-08-05T06:17:05;6.20;;;2.00;;
57105;SDS011;62662;56.788;23.942;2022-08-05T06:19:49;4.20;;;1.95;;
57105;SDS011;62662;56.788;23.942;2022-08-05T06:22:25;3.90;;;1.80;;
57105;SDS011;62662;56.788;23.942;2022-08-05T06:24:54;4.88;;;1.73;;
57105;SDS011;62662;56.788;23.942;2022-08-05T06:27:22;5.25;;;2.00;;
57105;SDS011;62662;56.788;23.942;2022-08-05T06:30:10;4.93;;;2.00;;
57105;SDS011;62662;56.788;23.942;2022-08-05T06:32:45;5.47;;;1.70;;
57105;SDS011;62662;56.788;23.942;2022-08-05T06:35:12;5.82;;;1.88;;
57105;SDS011;62662;56.788;23.942;2022-08-05T06:37:59;5.38;;;1.70;;
57105;SDS011;62662;56.788;23.942;2022-08-05T06:40:36;14.20;;;2.40;;
57105;SDS011;62662;56.788;23.942;2022-08-05T06:43:09;4.38;;;1.80;;
57105;SDS011;62662;56.788;23.942;2022-08-05T06:45:57;7.55;;;2.22;;
57105;SDS011;62662;56.788;23.942;2022-08-05T06:48:32;5.40;;;2.10;;
57105;SDS011;62662;56.788;23.942;2022-08-05T06:51:21;5.35;;;2.30;;
57105;SDS011;62662;56.788;23.942;2022-08-05T06:53:59;4.78;;;1.85;;
57105;SDS011;62662;56.788;23.942;2022-08-05T06:56:28;3.53;;;1.80;;
57105;SDS011;62662;56.788;23.942;2022-08-05T06:59:00;4.70;;;1.67;;
57105;SDS011;62662;56.788;23.942;2022-08-05T07:01:34;4.05;;;2.10;;
57105;SDS011;62662;56.788;23.942;2022-08-05T07:04:05;5.68;;;2.20;;
57105;SDS011;62662;56.788;23.942;2022-08-05T07:06:32;5.00;;;1.92;;
57105;SDS011;62662;56.788;23.942;2022-08-05T07:09:00;5.70;;;1.85;;
57105;SDS011;62662;56.788;23.942;2022-08-05T07:11:29;5.20;;;1.80;;
57105;SDS011;62662;56.788;23.942;2022-08-05T07:14:02;3.63;;;1.52;;
57105;SDS011;62662;56.788;23.942;2022-08-05T07:16:56;6.38;;;2.13;;
57105;SDS011;62662;56.788;23.942;2022-08-05T07:19:47;4.97;;;2.60;;
57105;SDS011;62662;56.788;23.942;2022-08-05T07:22:35;4.30;;;1.90;;
57105;SDS011;62662;56.788;23.942;2022-08-05T07:25:03;5.43;;;1.75;;
57105;SDS011;62662;56.788;23.942;2022-08-05T07:27:51;6.32;;;1.50;;
57105;SDS011;62662;56.788;23.942;2022-08-05T07:30:32;9.05;;;2.15;;
57105;SDS011;62662;56.788;23.942;2022-08-05T07:33:05;3.20;;;1.90;;
57105;SDS011;62662;56.788;23.942;2022-08-05T07:35:36;4.07;;;1.90;;
57105;SDS011;62662;56.788;23.942;2022-08-05T07:38:24;8.05;;;2.05;;
57105;SDS011;62662;56.788;23.942;2022-08-05T07:41:01;7.88;;;1.90;;
57105;SDS011;62662;56.788;23.942;2022-08-05T07:43:53;8.50;;;1.73;;
57105;SDS011;62662;56.788;23.942;2022-08-05T07:46:22;7.53;;;2.15;;
57105;SDS011;62662;56.788;23.942;2022-08-05T07:48:52;8.68;;;1.85;;
57105;SDS011;62662;56.788;23.942;2022-08-05T07:51:33;10.02;;;2.22;;
57105;SDS011;62662;56.788;23.942;2022-08-05T07:54:19;9.98;;;2.10;;
57105;SDS011;62662;56.788;23.942;2022-08-05T07:56:55;5.63;;;1.90;;
57105;SDS011;62662;56.788;23.942;2022-08-05T07:59:40;6.78;;;2.15;;
57105;SDS011;62662;56.788;23.942;2022-08-05T08:02:08;8.15;;;2.15;;
57105;SDS011;62662;56.788;23.942;2022-08-05T08:04:45;5.22;;;1.88;;
57105;SDS011;62662;56.788;23.942;2022-08-05T08:07:16;9.40;;;2.35;;
57105;SDS011;62662;56.788;23.942;2022-08-05T08:09:48;14.73;;;2.50;;
57105;SDS011;62662;56.788;23.942;2022-08-05T08:12:18;5.63;;;2.22;;
57105;SDS011;62662;56.788;23.942;2022-08-05T08:15:05;10.27;;;2.38;;
57105;SDS011;62662;56.788;23.942;2022-08-05T08:17:39;4.00;;;1.85;;
57105;SDS011;62662;56.788;23.942;2022-08-05T08:20:18;8.13;;;2.30;;
57105;SDS011;62662;56.788;23.942;2022-08-05T08:23:06;15.15;;;2.20;;
57105;SDS011;62662;56.788;23.942;2022-08-05T08:25:54;13.05;;;2.10;;
57105;SDS011;62662;56.788;23.942;2022-08-05T08:28:27;8.77;;;2.22;;
57105;SDS011;62662;56.788;23.942;2022-08-05T08:31:07;8.38;;;2.40;;
57105;SDS011;62662;56.788;23.942;2022-08-05T08:33:42;4.60;;;2.25;;
57105;SDS011;62662;56.788;23.942;2022-08-05T08:36:12;4.55;;;2.17;;
57105;SDS011;62662;56.788;23.942;2022-08-05T08:39:03;8.60;;;2.08;;
57105;SDS011;62662;56.788;23.942;2022-08-05T08:41:41;7.40;;;2.00;;
57105;SDS011;62662;56.788;23.942;2022-08-05T08:44:24;5.53;;;2.10;;
57105;SDS011;62662;56.788;23.942;2022-08-05T08:47:17;4.72;;;1.73;;
57105;SDS011;62662;56.788;23.942;2022-08-05T08:50:12;6.25;;;1.60;;
57105;SDS011;62662;56.788;23.942;2022-08-05T08:53:03;9.57;;;2.75;;
57105;SDS011;62662;56.788;23.942;2022-08-05T08:55:38;9.20;;;2.28;;
57105;SDS011;62662;56.788;23.942;2022-08-05T08:58:25;3.28;;;1.83;;
57105;SDS011;62662;56.788;23.942;2022-08-05T09:01:09;7.93;;;1.65;;
57105;SDS011;62662;56.788;23.942;2022-08-05T09:03:50;9.55;;;2.20;;
57105;SDS011;62662;56.788;23.942;2022-08-05T09:06:25;7.82;;;1.90;;
57105;SDS011;62662;56.788;23.942;2022-08-05T09:08:57;5.05;;;1.83;;
57105;SDS011;62662;56.788;23.942;2022-08-05T09:11:26;11.85;;;2.15;;
57105;SDS011;62662;56.788;23.942;2022-08-05T09:14:14;4.22;;;1.90;;
57105;SDS011;62662;56.788;23.942;2022-08-05T09:17:06;5.25;;;1.73;;
57105;SDS011;62662;56.788;23.942;2022-08-05T09:19:55;4.38;;;1.60;;
57105;SDS011;62662;56.788;23.942;2022-08-05T09:25:31;3.05;;;1.75;;
57105;SDS011;62662;56.788;23.942;2022-08-05T09:28:19;8.63;;;2.05;;
57105;SDS011;62662;56.788;23.942;2022-08-05T09:36:21;8.18;;;1.77;;
57105;SDS011;62662;56.788;23.942;2022-08-05T09:39:02;5.53;;;1.80;;
57105;SDS011;62662;56.788;23.942;2022-08-05T09:42:00;3.30;;;1.95;;
57105;SDS011;62662;56.788;23.942;2022-08-05T09:44:33;14.77;;;2.72;;
57105;SDS011;62662;56.788;23.942;2022-08-05T09:50:01;3.33;;;1.48;;
57105;SDS011;62662;56.788;23.942;2022-08-05T09:52:29;8.88;;;1.70;;
57105;SDS011;62662;56.788;23.942;2022-08-05T09:57:51;6.78;;;1.90;;
57105;SDS011;62662;56.788;23.942;2022-08-05T10:00:23;4.25;;;2.00;;
57105;SDS011;62662;56.788;23.942;2022-08-05T10:02:52;5.05;;;2.15;;
57105;SDS011;62662;56.788;23.942;2022-08-05T10:05:24;3.97;;;2.10;;
57105;SDS011;62662;56.788;23.942;2022-08-05T10:10:46;6.80;;;1.55;;
57105;SDS011;62662;56.788;23.942;2022-08-05T10:16:27;9.18;;;1.80;;
57105;SDS011;62662;56.788;23.942;2022-08-05T10:18:59;7.65;;;1.92;;
57105;SDS011;62662;56.788;23.942;2022-08-05T10:21:34;6.22;;;2.08;;
57105;SDS011;62662;56.788;23.942;2022-08-05T10:24:06;6.20;;;2.03;;
57105;SDS011;62662;56.788;23.942;2022-08-05T10:26:36;5.57;;;1.63;;
57105;SDS011;62662;56.788;23.942;2022-08-05T10:29:18;3.88;;;1.70;;
57105;SDS011;62662;56.788;23.942;2022-08-05T10:32:07;5.40;;;1.65;;
57105;SDS011;62662;56.788;23.942;2022-08-05T10:34:54;4.97;;;1.70;;
57105;SDS011;62662;56.788;23.942;2022-08-05T10:37:26;6.70;;;1.92;;
57105;SDS011;62662;56.788;23.942;2022-08-05T10:40:23;4.63;;;2.00;;
57105;SDS011;62662;56.788;23.942;2022-08-05T10:46:17;4.78;;;1.65;;
57105;SDS011;62662;56.788;23.942;2022-08-05T10:48:53;4.50;;;1.58;;
57105;SDS011;62662;56.788;23.942;2022-08-05T10:51:40;7.38;;;2.00;;
57105;SDS011;62662;56.788;23.942;2022-08-05T10:54:44;3.85;;;1.75;;
57105;SDS011;62662;56.788;23.942;2022-08-05T10:57:25;4.28;;;1.52;;
57105;SDS011;62662;56.788;23.942;2022-08-05T11:00:15;6.10;;;1.63;;
57105;SDS011;62662;56.788;23.942;2022-08-05T11:06:07;5.78;;;1.60;;
57105;SDS011;62662;56.788;23.942;2022-08-05T11:11:42;4.22;;;1.60;;
57105;SDS011;62662;56.788;23.942;2022-08-05T11:14:23;7.07;;;1.60;;
57105;SDS011;62662;56.788;23.942;2022-08-05T11:17:33;12.70;;;3.22;;
57105;SDS011;62662;56.788;23.942;2022-08-05T11:20:36;7.80;;;1.77;;
57105;SDS011;62662;56.788;23.942;2022-08-05T11:28:57;5.05;;;1.85;;
57105;SDS011;62662;56.788;23.942;2022-08-05T11:31:37;5.10;;;1.77;;
57105;SDS011;62662;56.788;23.942;2022-08-05T11:34:34;5.15;;;1.90;;
57105;SDS011;62662;56.788;23.942;2022-08-05T11:37:03;4.15;;;1.90;;
57105;SDS011;62662;56.788;23.942;2022-08-05T11:39:50;7.75;;;1.90;;
57105;SDS011;62662;56.788;23.942;2022-08-05T11:42:27;8.48;;;1.60;;
57105;SDS011;62662;56.788;23.942;2022-08-05T11:44:59;5.22;;;1.92;;
57105;SDS011;62662;56.788;23.942;2022-08-05T11:47:31;7.50;;;1.80;;
57105;SDS011;62662;56.788;23.942;2022-08-05T11:50:15;5.65;;;1.90;;
57105;SDS011;62662;56.788;23.942;2022-08-05T11:52:42;5.10;;;2.15;;
57105;SDS011;62662;56.788;23.942;2022-08-05T11:55:14;17.85;;;3.50;;
57105;SDS011;62662;56.788;23.942;2022-08-05T11:57:44;8.93;;;3.42;;
57105;SDS011;62662;56.788;23.942;2022-08-05T12:00:31;4.50;;;2.25;;
57105;SDS011;62662;56.788;23.942;2022-08-05T12:03:19;6.78;;;1.88;;
57105;SDS011;62662;56.788;23.942;2022-08-05T12:05:59;8.38;;;1.95;;
57105;SDS011;62662;56.788;23.942;2022-08-05T12:08:27;5.53;;;2.05;;
57105;SDS011;62662;56.788;23.942;2022-08-05T12:10:58;8.02;;;1.80;;
57105;SDS011;62662;56.788;23.942;2022-08-05T12:13:31;8.80;;;1.50;;
57105;SDS011;62662;56.788;23.942;2022-08-05T12:16:16;8.68;;;2.17;;
57105;SDS011;62662;56.788;23.942;2022-08-05T12:18:44;8.68;;;2.13;;
57105;SDS011;62662;56.788;23.942;2022-08-05T12:23:53;8.00;;;1.92;;
57105;SDS011;62662;56.788;23.942;2022-08-05T12:29:19;7.65;;;1.92;;
57105;SDS011;62662;56.788;23.942;2022-08-05T12:31:55;3.47;;;2.00;;
57105;SDS011;62662;56.788;23.942;2022-08-05T12:34:28;6.53;;;1.67;;
57105;SDS011;62662;56.788;23.942;2022-08-05T12:37:03;5.32;;;1.90;;
57105;SDS011;62662;56.788;23.942;2022-08-05T12:39:46;5.47;;;1.95;;
57105;SDS011;62662;56.788;23.942;2022-08-05T12:42:17;4.32;;;1.80;;
57105;SDS011;62662;56.788;23.942;2022-08-05T12:44:46;9.98;;;2.10;;
57105;SDS011;62662;56.788;23.942;2022-08-05T12:47:24;7.93;;;2.13;;
57105;SDS011;62662;56.788;23.942;2022-08-05T12:49:55;6.38;;;2.13;;
57105;SDS011;62662;56.788;23.942;2022-08-05T12:52:31;9.13;;;2.15;;
57105;SDS011;62662;56.788;23.942;2022-08-05T12:55:20;6.20;;;2.00;;
57105;SDS011;62662;56.788;23.942;2022-08-05T12:57:52;10.48;;;2.22;;
57105;SDS011;62662;56.788;23.942;2022-08-05T13:00:40;5.88;;;1.75;;
57105;SDS011;62662;56.788;23.942;2022-08-05T13:03:29;6.28;;;2.10;;
57105;SDS011;62662;56.788;23.942;2022-08-05T13:05:58;5.65;;;2.05;;
57105;SDS011;62662;56.788;23.942;2022-08-05T13:08:29;5.15;;;2.28;;
57105;SDS011;62662;56.788;23.942;2022-08-05T13:10:59;3.25;;;2.40;;
57105;SDS011;62662;56.788;23.942;2022-08-05T13:13:28;3.28;;;2.13;;
57105;SDS011;62662;56.788;23.942;2022-08-05T13:16:15;6.30;;;2.28;;
57105;SDS011;62662;56.788;23.942;2022-08-05T13:18:52;5.10;;;2.03;;
57105;SDS011;62662;56.788;23.942;2022-08-05T13:21:24;9.80;;;2.28;;
57105;SDS011;62662;56.788;23.942;2022-08-05T13:23:53;6.22;;;2.22;;
57105;SDS011;62662;56.788;23.942;2022-08-05T13:26:20;7.53;;;2.70;;
57105;SDS011;62662;56.788;23.942;2022-08-05T13:28:55;6.03;;;2.43;;
57105;SDS011;62662;56.788;23.942;2022-08-05T13:31:24;8.27;;;2.35;;
57105;SDS011;62662;56.788;23.942;2022-08-05T13:34:12;11.10;;;2.38;;
57105;SDS011;62662;56.788;23.942;2022-08-05T13:36:50;4.53;;;2.40;;
57105;SDS011;62662;56.788;23.942;2022-08-05T13:39:18;4.00;;;2.15;;
57105;SDS011;62662;56.788;23.942;2022-08-05T13:42:05;12.18;;;2.72;;
57105;SDS011;62662;56.788;23.942;2022-08-05T13:44:40;7.63;;;2.40;;
57105;SDS011;62662;56.788;23.942;2022-08-05T13:47:11;3.40;;;2.20;;
57105;SDS011;62662;56.788;23.942;2022-08-05T13:49:59;5.97;;;2.25;;
57105;SDS011;62662;56.788;23.942;2022-08-05T13:52:29;4.43;;;2.10;;
57105;SDS011;62662;56.788;23.942;2022-08-05T13:55:01;7.70;;;2.25;;
57105;SDS011;62662;56.788;23.942;2022-08-05T13:57:33;7.20;;;2.42;;
57105;SDS011;62662;56.788;23.942;2022-08-05T14:00:17;8.32;;;2.10;;
57105;SDS011;62662;56.788;23.942;2022-08-05T14:02:53;11.98;;;2.28;;
57105;SDS011;62662;56.788;23.942;2022-08-05T14:05:21;12.20;;;2.67;;
57105;SDS011;62662;56.788;23.942;2022-08-05T14:08:08;5.38;;;2.50;;
57105;SDS011;62662;56.788;23.942;2022-08-05T14:10:46;2.88;;;2.38;;
57105;SDS011;62662;56.788;23.942;2022-08-05T14:13:14;11.60;;;2.70;;
57105;SDS011;62662;56.788;23.942;2022-08-05T14:15:41;8.52;;;2.42;;
57105;SDS011;62662;56.788;23.942;2022-08-05T14:18:28;8.48;;;2.67;;
57105;SDS011;62662;56.788;23.942;2022-08-05T14:20:57;13.27;;;3.00;;
57105;SDS011;62662;56.788;23.942;2022-08-05T14:23:25;5.32;;;2.60;;
57105;SDS011;62662;56.788;23.942;2022-08-05T14:26:02;13.57;;;2.35;;
57105;SDS011;62662;56.788;23.942;2022-08-05T14:28:31;6.30;;;2.30;;
57105;SDS011;62662;56.788;23.942;2022-08-05T14:30:59;10.05;;;2.35;;
57105;SDS011;62662;56.788;23.942;2022-08-05T14:33:27;8.88;;;2.75;;
57105;SDS011;62662;56.788;23.942;2022-08-05T14:36:14;11.15;;;2.90;;
57105;SDS011;62662;56.788;23.942;2022-08-05T14:38:47;13.10;;;2.63;;
57105;SDS011;62662;56.788;23.942;2022-08-05T14:41:19;10.48;;;2.50;;
57105;SDS011;62662;56.788;23.942;2022-08-05T14:43:46;8.00;;;2.63;;
57105;SDS011;62662;56.788;23.942;2022-08-05T14:46:34;7.88;;;3.10;;
57105;SDS011;62662;56.788;23.942;2022-08-05T14:49:03;10.90;;;3.33;;
57105;SDS011;62662;56.788;23.942;2022-08-05T14:51:33;10.40;;;2.65;;
57105;SDS011;62662;56.788;23.942;2022-08-05T14:54:03;15.20;;;3.20;;
57105;SDS011;62662;56.788;23.942;2022-08-05T14:56:53;9.48;;;3.00;;
57105;SDS011;62662;56.788;23.942;2022-08-05T14:59:21;8.77;;;2.88;;
57105;SDS011;62662;56.788;23.942;2022-08-05T15:01:48;9.70;;;3.03;;
57105;SDS011;62662;56.788;23.942;2022-08-05T15:04:16;8.40;;;2.85;;
57105;SDS011;62662;56.788;23.942;2022-08-05T15:06:46;11.55;;;4.18;;
57105;SDS011;62662;56.788;23.942;2022-08-05T15:09:15;9.82;;;2.97;;
57105;SDS011;62662;56.788;23.942;2022-08-05T15:12:03;9.52;;;3.03;;
57105;SDS011;62662;56.788;23.942;2022-08-05T15:14:34;8.43;;;3.13;;
57105;SDS011;62662;56.788;23.942;2022-08-05T15:17:15;12.18;;;3.88;;
57105;SDS011;62662;56.788;23.942;2022-08-05T15:20:02;12.60;;;3.20;;
57105;SDS011;62662;56.788;23.942;2022-08-05T15:22:30;7.13;;;3.30;;
57105;SDS011;62662;56.788;23.942;2022-08-05T15:24:57;6.55;;;3.15;;
57105;SDS011;62662;56.788;23.942;2022-08-05T15:27:39;7.38;;;2.63;;
57105;SDS011;62662;56.788;23.942;2022-08-05T15:30:08;10.73;;;2.95;;
57105;SDS011;62662;56.788;23.942;2022-08-05T15:32:39;12.07;;;3.30;;
57105;SDS011;62662;56.788;23.942;2022-08-05T15:35:06;8.57;;;3.10;;
57105;SDS011;62662;56.788;23.942;2022-08-05T15:37:37;17.23;;;3.70;;
57105;SDS011;62662;56.788;23.942;2022-08-05T15:40:25;12.32;;;3.30;;
57105;SDS011;62662;56.788;23.942;2022-08-05T15:43:12;7.18;;;3.08;;
57105;SDS011;62662;56.788;23.942;2022-08-05T15:45:45;7.85;;;3.63;;
57105;SDS011;62662;56.788;23.942;2022-08-05T15:48:26;11.35;;;3.10;;
57105;SDS011;62662;56.788;23.942;2022-08-05T15:50:53;11.55;;;3.22;;
57105;SDS011;62662;56.788;23.942;2022-08-05T15:53:21;17.85;;;3.13;;
57105;SDS011;62662;56.788;23.942;2022-08-05T15:56:06;7.82;;;3.28;;
57105;SDS011;62662;56.788;23.942;2022-08-05T15:58:39;14.18;;;3.20;;
57105;SDS011;62662;56.788;23.942;2022-08-05T16:01:08;5.10;;;3.20;;
57105;SDS011;62662;56.788;23.942;2022-08-05T16:03:43;12.32;;;3.63;;
57105;SDS011;62662;56.788;23.942;2022-08-05T16:06:16;15.63;;;3.47;;
57105;SDS011;62662;56.788;23.942;2022-08-05T16:08:45;13.27;;;3.42;;
57105;SDS011;62662;56.788;23.942;2022-08-05T16:11:16;9.20;;;3.83;;
57105;SDS011;62662;56.788;23.942;2022-08-05T16:13:46;12.35;;;3.70;;
57105;SDS011;62662;56.788;23.942;2022-08-05T16:16:13;11.30;;;3.30;;
57105;SDS011;62662;56.788;23.942;2022-08-05T16:18:50;12.18;;;3.67;;
57105;SDS011;62662;56.788;23.942;2022-08-05T16:21:18;12.68;;;3.58;;
57105;SDS011;62662;56.788;23.942;2022-08-05T16:24:07;4.38;;;3.13;;
57105;SDS011;62662;56.788;23.942;2022-08-05T16:26:55;10.30;;;3.67;;
57105;SDS011;62662;56.788;23.942;2022-08-05T16:29:24;10.07;;;3.90;;